createdAt,value
2017-09-25T00:00:11.356Z,12.50
2017-09-25T00:02:41.374Z,12.50
2017-09-25T00:05:10.688Z,12.50
2017-09-25T00:07:40.720Z,12.50
2017-09-25T00:10:09.982Z,12.50
2017-09-25T00:12:39.438Z,12.60
2017-09-25T00:15:09.452Z,12.60
2017-09-25T00:17:38.701Z,12.60
2017-09-25T00:20:08.138Z,12.60
2017-09-25T00:22:38.162Z,12.60
2017-09-25T00:25:07.438Z,12.60
2017-09-25T00:27:36.721Z,12.60
2017-09-25T00:30:06.146Z,12.70
2017-09-25T00:32:35.450Z,12.70
2017-09-25T00:35:04.908Z,12.70
2017-09-25T00:37:34.182Z,12.80
2017-09-25T00:40:03.455Z,12.90
2017-09-25T00:42:34.225Z,12.90
2017-09-25T00:45:03.732Z,12.80
2017-09-25T00:47:33.109Z,12.90
2017-09-25T00:50:03.154Z,12.80
2017-09-25T00:52:50.193Z,12.80
2017-09-25T00:55:29.073Z,12.80
2017-09-25T00:57:59.082Z,12.80
2017-09-25T01:00:46.085Z,12.80
2017-09-25T01:03:32.442Z,12.80
2017-09-25T01:06:19.534Z,12.70
2017-09-25T01:08:48.777Z,12.60
2017-09-25T01:11:18.055Z,12.50
2017-09-25T01:13:47.435Z,12.40
2017-09-25T01:16:17.457Z,12.20
2017-09-25T01:18:46.821Z,12.20
2017-09-25T01:21:16.094Z,12.20
2017-09-25T01:23:45.350Z,12.10
2017-09-25T01:26:15.385Z,12.00
2017-09-25T01:28:45.401Z,11.90
2017-09-25T01:31:14.786Z,11.90
2017-09-25T01:33:44.911Z,11.90
2017-09-25T01:36:14.171Z,11.80
2017-09-25T01:38:43.413Z,11.80
2017-09-25T01:41:13.050Z,11.70
2017-09-25T01:43:42.293Z,11.60
2017-09-25T01:46:11.567Z,11.60
2017-09-25T01:48:40.838Z,11.60
2017-09-25T01:51:10.248Z,11.50
2017-09-25T01:53:40.345Z,11.40
2017-09-25T01:56:09.629Z,11.40
2017-09-25T01:58:38.950Z,11.40
2017-09-25T02:01:08.194Z,11.30
2017-09-25T02:03:37.642Z,11.30
2017-09-25T02:06:06.885Z,11.20
2017-09-25T02:08:36.132Z,11.20
2017-09-25T02:11:05.394Z,11.20
2017-09-25T02:13:34.761Z,11.20
2017-09-25T02:16:04.794Z,11.10
2017-09-25T02:18:34.033Z,11.10
2017-09-25T02:21:03.306Z,11.10
2017-09-25T02:23:32.545Z,11.00
2017-09-25T02:26:01.807Z,10.90
2017-09-25T02:28:31.045Z,10.90
2017-09-25T02:31:00.282Z,10.90
2017-09-25T02:33:29.588Z,10.90
2017-09-25T02:35:59.594Z,10.90
2017-09-25T02:38:28.858Z,10.90
2017-09-25T02:40:58.103Z,10.80
2017-09-25T02:43:27.401Z,10.80
2017-09-25T02:45:56.729Z,10.80
2017-09-25T02:48:26.012Z,10.80
2017-09-25T02:50:56.048Z,10.70
2017-09-25T02:53:25.290Z,10.70
2017-09-25T02:55:54.550Z,10.70
2017-09-25T02:58:23.837Z,10.70
2017-09-25T03:00:53.833Z,10.60
2017-09-25T03:03:23.097Z,10.70
2017-09-25T03:05:52.546Z,10.70
2017-09-25T03:08:21.813Z,10.60
2017-09-25T03:10:51.060Z,10.60
2017-09-25T03:13:20.339Z,10.60
2017-09-25T03:15:49.590Z,10.60
2017-09-25T03:18:19.027Z,10.60
2017-09-25T03:20:48.297Z,10.50
2017-09-25T03:23:17.574Z,10.50
2017-09-25T03:25:46.977Z,10.50
2017-09-25T03:28:16.997Z,10.50
2017-09-25T03:30:46.389Z,10.50
2017-09-25T03:33:16.393Z,10.40
2017-09-25T03:35:45.809Z,10.40
2017-09-25T03:38:15.838Z,10.30
2017-09-25T03:40:45.088Z,10.40
2017-09-25T03:43:14.346Z,10.30
2017-09-25T03:45:43.631Z,10.40
2017-09-25T03:48:13.661Z,10.20
2017-09-25T03:50:42.931Z,10.20
2017-09-25T03:53:12.177Z,10.30
2017-09-25T03:55:41.649Z,10.20
2017-09-25T03:58:10.961Z,10.20
2017-09-25T04:00:40.369Z,10.20
2017-09-25T04:03:09.613Z,10.20
2017-09-25T04:05:38.906Z,10.10
2017-09-25T04:08:08.158Z,10.10
2017-09-25T04:10:37.674Z,10.10
2017-09-25T04:13:07.725Z,10.10
2017-09-25T04:15:36.991Z,10.00
2017-09-25T04:18:06.395Z,10.00
2017-09-25T04:20:36.409Z,10.00
2017-09-25T04:23:05.686Z,10.00
2017-09-25T04:25:35.106Z,10.00
2017-09-25T04:28:05.256Z,10.00
2017-09-25T04:30:35.274Z,10.00
2017-09-25T04:33:04.521Z,10.00
2017-09-25T04:35:33.880Z,10.00
2017-09-25T04:38:03.092Z,9.90
2017-09-25T04:40:32.334Z,9.90
2017-09-25T04:43:01.906Z,9.90
2017-09-25T04:45:31.978Z,9.80
2017-09-25T04:48:01.314Z,9.80
2017-09-25T04:50:30.543Z,9.80
2017-09-25T04:53:00.373Z,9.80
2017-09-25T04:55:29.663Z,9.70
2017-09-25T04:57:58.924Z,9.80
2017-09-25T05:00:28.162Z,9.80
2017-09-25T05:02:57.398Z,9.80
2017-09-25T05:05:26.663Z,9.70
2017-09-25T05:07:56.102Z,9.70
2017-09-25T05:10:25.376Z,9.70
2017-09-25T05:12:54.629Z,9.70
2017-09-25T05:15:23.866Z,9.70
2017-09-25T05:17:53.118Z,9.70
2017-09-25T05:20:23.873Z,9.70
2017-09-25T05:22:53.098Z,9.70
2017-09-25T05:25:22.341Z,9.70
2017-09-25T05:27:52.360Z,9.70
2017-09-25T05:30:22.340Z,9.70
2017-09-25T05:32:51.595Z,9.70
2017-09-25T05:35:21.733Z,9.80
2017-09-25T05:37:50.977Z,9.80
2017-09-25T05:40:20.261Z,9.80
2017-09-25T05:42:49.822Z,9.90
2017-09-25T05:45:19.867Z,10.00
2017-09-25T05:47:49.124Z,10.00
2017-09-25T05:50:18.378Z,10.10
2017-09-25T05:52:47.830Z,10.10
2017-09-25T05:55:17.134Z,10.10
2017-09-25T05:57:47.250Z,10.30
2017-09-25T06:00:16.486Z,10.30
2017-09-25T06:02:45.858Z,10.40
2017-09-25T06:05:15.877Z,10.50
2017-09-25T06:07:45.286Z,10.50
2017-09-25T06:10:16.041Z,10.70
2017-09-25T06:12:45.323Z,10.70
2017-09-25T06:15:14.706Z,10.80
2017-09-25T06:17:43.960Z,10.90
2017-09-25T06:20:13.253Z,11.00
2017-09-25T06:22:42.561Z,11.10
2017-09-25T06:25:11.829Z,11.20
2017-09-25T06:27:41.146Z,11.40
2017-09-25T06:30:11.865Z,11.60
2017-09-25T06:32:41.974Z,11.80
2017-09-25T06:35:11.223Z,11.80
2017-09-25T06:37:40.481Z,12.00
2017-09-25T06:40:10.483Z,12.20
2017-09-25T06:42:39.793Z,12.20
2017-09-25T06:45:09.803Z,12.70
2017-09-25T06:47:39.074Z,14.00
2017-09-25T06:50:08.349Z,16.20
2017-09-25T06:52:37.655Z,18.60
2017-09-25T06:55:06.898Z,20.70
2017-09-25T06:57:36.167Z,22.70
2017-09-25T07:00:05.431Z,24.30
2017-09-25T07:02:34.674Z,25.70
2017-09-25T07:05:03.935Z,26.10
2017-09-25T07:07:34.038Z,28.50
2017-09-25T07:10:03.324Z,28.40
2017-09-25T07:12:32.582Z,29.70
2017-09-25T07:15:01.902Z,30.50
2017-09-25T07:17:31.161Z,31.00
2017-09-25T07:20:00.420Z,31.80
2017-09-25T07:22:30.458Z,32.20
2017-09-25T07:24:59.767Z,32.50
2017-09-25T07:27:29.016Z,32.70
2017-09-25T07:29:58.294Z,33.20
2017-09-25T07:32:27.576Z,33.20
2017-09-25T07:34:56.943Z,33.00
2017-09-25T07:37:26.385Z,33.70
2017-09-25T07:39:56.394Z,34.10
2017-09-25T07:42:25.649Z,34.10
2017-09-25T07:44:54.902Z,33.70
2017-09-25T07:47:25.144Z,34.90
2017-09-25T07:49:54.414Z,34.90
2017-09-25T07:52:23.828Z,35.40
2017-09-25T07:54:53.092Z,35.50
2017-09-25T07:57:22.321Z,35.20
2017-09-25T07:59:51.595Z,35.30
2017-09-25T08:02:20.861Z,35.30
2017-09-25T08:04:50.177Z,35.10
2017-09-25T08:07:19.473Z,35.10
2017-09-25T08:09:48.706Z,34.80
2017-09-25T08:12:17.978Z,34.60
2017-09-25T08:14:47.222Z,34.90
2017-09-25T08:17:17.331Z,34.70
2017-09-25T08:19:46.607Z,34.30
2017-09-25T08:22:15.854Z,33.40
2017-09-25T08:24:45.915Z,34.40
2017-09-25T08:27:15.270Z,34.30
2017-09-25T08:29:44.546Z,35.00
2017-09-25T08:32:13.886Z,34.50
2017-09-25T08:34:43.905Z,35.10
2017-09-25T08:37:13.174Z,35.10
2017-09-25T08:39:42.593Z,35.70
2017-09-25T08:42:11.859Z,36.50
2017-09-25T08:44:41.210Z,36.50
2017-09-25T08:47:11.336Z,36.40
2017-09-25T08:49:41.454Z,35.20
2017-09-25T08:52:11.462Z,35.10
2017-09-25T08:54:40.714Z,35.10
2017-09-25T08:57:09.988Z,36.00
2017-09-25T08:59:39.265Z,35.30
2017-09-25T09:02:09.278Z,32.00
2017-09-25T09:04:38.594Z,32.00
2017-09-25T09:07:08.599Z,29.20
2017-09-25T09:09:37.854Z,29.10
2017-09-25T09:12:07.141Z,28.10
2017-09-25T09:14:36.405Z,27.10
2017-09-25T09:17:05.702Z,26.40
2017-09-25T09:19:35.072Z,26.10
2017-09-25T09:22:04.426Z,26.30
2017-09-25T09:24:34.433Z,26.20
2017-09-25T09:27:04.654Z,25.90
2017-09-25T09:29:33.931Z,25.90
2017-09-25T09:32:03.241Z,25.80
2017-09-25T09:34:32.546Z,25.00
2017-09-25T09:37:02.618Z,25.00
2017-09-25T09:39:31.918Z,25.00
2017-09-25T09:42:01.802Z,27.20
2017-09-25T09:44:31.846Z,28.60
2017-09-25T09:47:01.117Z,28.60
2017-09-25T09:49:31.238Z,27.10
2017-09-25T09:52:01.278Z,26.70
2017-09-25T09:54:30.567Z,26.70
2017-09-25T09:56:59.805Z,28.30
2017-09-25T09:59:29.054Z,29.70
2017-09-25T10:01:58.321Z,30.50
2017-09-25T10:04:27.687Z,31.40
2017-09-25T10:06:57.185Z,32.00
2017-09-25T10:09:27.285Z,33.60
2017-09-25T10:11:56.523Z,33.50
2017-09-25T10:14:25.790Z,34.30
2017-09-25T10:16:55.199Z,35.20
2017-09-25T10:19:25.265Z,34.20
2017-09-25T10:21:55.446Z,34.80
2017-09-25T10:24:25.582Z,34.80
2017-09-25T10:26:54.850Z,34.80
2017-09-25T10:29:24.860Z,32.60
2017-09-25T10:31:54.132Z,32.60
2017-09-25T10:34:23.374Z,31.70
2017-09-25T10:36:52.718Z,30.90
2017-09-25T10:39:21.954Z,31.00
2017-09-25T10:41:51.353Z,31.20
2017-09-25T10:44:20.603Z,32.10
2017-09-25T10:46:49.886Z,32.80
2017-09-25T10:49:19.370Z,33.00
2017-09-25T10:51:48.619Z,33.40
2017-09-25T10:54:17.880Z,31.60
2017-09-25T10:56:47.134Z,29.40
2017-09-25T10:59:16.382Z,29.30
2017-09-25T11:01:45.656Z,29.90
2017-09-25T11:04:15.679Z,32.50
2017-09-25T11:06:44.947Z,32.50
2017-09-25T11:09:14.194Z,33.70
2017-09-25T11:11:43.743Z,34.50
2017-09-25T11:14:13.016Z,33.20
2017-09-25T11:16:43.036Z,29.40
2017-09-25T11:19:13.090Z,28.00
2017-09-25T11:21:42.525Z,27.90
2017-09-25T11:24:11.778Z,27.70
2017-09-25T11:26:41.021Z,27.70
2017-09-25T11:29:10.490Z,28.40
2017-09-25T11:31:39.758Z,29.70
2017-09-25T11:34:09.078Z,31.00
2017-09-25T11:36:39.181Z,29.30
2017-09-25T11:39:08.511Z,29.30
2017-09-25T11:41:38.536Z,28.30
2017-09-25T11:44:07.792Z,28.30
2017-09-25T11:46:37.066Z,28.60
2017-09-25T11:49:06.515Z,28.60
2017-09-25T11:51:36.551Z,29.00
2017-09-25T11:54:05.798Z,29.00
2017-09-25T11:56:35.058Z,29.00
2017-09-25T11:59:04.326Z,28.60
2017-09-25T12:01:33.635Z,26.80
2017-09-25T12:04:02.877Z,25.90
2017-09-25T12:06:32.203Z,25.20
2017-09-25T12:09:01.456Z,24.30
2017-09-25T12:11:32.250Z,23.30
2017-09-25T12:14:01.505Z,23.30
2017-09-25T12:16:30.803Z,23.10
2017-09-25T12:19:00.172Z,23.10
2017-09-25T12:21:29.421Z,23.60
2017-09-25T12:23:58.680Z,23.80
2017-09-25T12:26:28.085Z,23.90
2017-09-25T12:28:58.127Z,24.10
2017-09-25T12:31:27.946Z,24.10
2017-09-25T12:33:57.215Z,23.70
2017-09-25T12:36:26.525Z,23.30
2017-09-25T12:38:56.566Z,22.80
2017-09-25T12:41:25.939Z,22.80
2017-09-25T12:43:55.342Z,22.50
2017-09-25T12:46:25.126Z,22.30
2017-09-25T12:48:54.369Z,22.30
2017-09-25T12:51:23.641Z,22.30
2017-09-25T12:53:53.066Z,22.20
2017-09-25T12:56:23.092Z,22.60
2017-09-25T12:58:52.323Z,22.50
2017-09-25T13:01:21.615Z,22.70
2017-09-25T13:03:51.623Z,22.90
2017-09-25T13:06:21.834Z,22.70
2017-09-25T13:08:51.969Z,22.60
2017-09-25T13:11:21.241Z,22.60
2017-09-25T13:13:50.550Z,22.50
2017-09-25T13:16:20.593Z,22.30
2017-09-25T13:18:50.066Z,22.30
2017-09-25T13:21:20.124Z,21.90
2017-09-25T13:23:49.456Z,21.90
2017-09-25T13:26:18.706Z,21.90
2017-09-25T13:28:48.726Z,21.70
2017-09-25T13:31:17.990Z,21.70
2017-09-25T13:33:47.257Z,21.50
2017-09-25T13:36:16.497Z,21.40
2017-09-25T13:38:45.754Z,21.50
2017-09-25T13:41:15.129Z,21.50
2017-09-25T13:43:45.239Z,21.50
2017-09-25T13:46:14.534Z,21.50
2017-09-25T13:51:19.391Z,21.70
2017-09-25T13:53:48.684Z,21.80
2017-09-25T13:56:18.162Z,21.70
2017-09-25T14:03:56.318Z,21.40
2017-09-25T14:06:25.562Z,21.40
2017-09-25T14:08:54.812Z,21.30
2017-09-25T14:11:24.165Z,21.10
2017-09-25T14:13:54.265Z,20.90
2017-09-25T14:16:24.363Z,20.70
2017-09-25T14:18:53.765Z,20.70
2017-09-25T14:21:23.187Z,20.80
2017-09-25T14:23:52.437Z,20.90
2017-09-25T14:26:21.678Z,20.80
2017-09-25T14:28:51.054Z,20.80
2017-09-25T14:31:21.031Z,20.90
2017-09-25T14:33:50.457Z,20.80
2017-09-25T14:36:20.471Z,20.80
2017-09-25T14:38:49.701Z,20.70
2017-09-25T14:41:18.991Z,21.00
2017-09-25T14:43:48.278Z,21.20
2017-09-25T14:46:17.519Z,21.30
2017-09-25T14:48:46.781Z,21.30
2017-09-25T14:51:16.040Z,21.40
2017-09-25T14:53:45.301Z,21.30
2017-09-25T14:56:14.554Z,21.30
2017-09-25T14:58:43.986Z,21.30
2017-09-25T15:01:13.566Z,21.30
2017-09-25T15:03:42.793Z,21.10
2017-09-25T15:06:13.050Z,20.80
2017-09-25T15:08:42.389Z,20.70
2017-09-25T15:11:11.601Z,20.80
2017-09-25T15:13:40.881Z,20.80
2017-09-25T15:16:10.130Z,20.60
2017-09-25T15:18:39.395Z,20.60
2017-09-25T15:21:08.803Z,20.70
2017-09-25T15:23:38.083Z,20.70
2017-09-25T15:26:08.835Z,20.70
2017-09-25T15:28:38.144Z,20.70
2017-09-25T15:31:08.902Z,20.50
2017-09-25T15:33:38.166Z,20.50
2017-09-25T15:36:07.411Z,20.50
2017-09-25T15:38:36.869Z,20.30
2017-09-25T15:41:06.906Z,20.30
2017-09-25T15:43:36.173Z,20.20
2017-09-25T15:46:05.437Z,20.20
2017-09-25T15:48:34.699Z,20.20
2017-09-25T15:51:05.193Z,20.20
2017-09-25T15:53:34.430Z,20.20
2017-09-25T15:56:03.687Z,20.10
2017-09-25T15:58:32.961Z,20.10
2017-09-25T16:01:02.235Z,19.90
2017-09-25T16:03:31.683Z,19.80
2017-09-25T16:06:00.917Z,19.70
2017-09-25T16:08:30.201Z,19.60
2017-09-25T16:10:59.444Z,19.40
2017-09-25T16:13:28.693Z,19.30
2017-09-25T16:15:57.972Z,19.20
2017-09-25T16:18:26.527Z,19.10
2017-09-25T16:20:55.641Z,19.10
2017-09-25T16:23:24.885Z,18.90
2017-09-25T16:25:54.141Z,18.70
2017-09-25T16:28:23.405Z,18.40
2017-09-25T16:30:52.654Z,18.30
2017-09-25T16:33:21.898Z,18.30
2017-09-25T16:35:51.934Z,17.90
2017-09-25T16:38:21.339Z,17.90
2017-09-25T16:40:51.362Z,17.50
2017-09-25T16:43:20.733Z,17.50
2017-09-25T16:45:50.104Z,17.50
2017-09-25T16:48:19.757Z,17.40
2017-09-25T16:50:49.030Z,17.30
2017-09-25T16:53:18.322Z,17.20
2017-09-25T16:55:47.566Z,17.20
2017-09-25T16:58:16.971Z,17.10
2017-09-25T17:00:47.010Z,16.90
2017-09-25T17:03:16.406Z,16.90
2017-09-25T17:05:46.446Z,16.80
2017-09-25T17:08:15.734Z,16.80
2017-09-25T17:10:45.013Z,16.80
2017-09-25T17:13:14.339Z,16.60
2017-09-25T17:15:43.609Z,16.60
2017-09-25T17:18:12.964Z,16.40
2017-09-25T17:20:42.515Z,16.30
2017-09-25T17:23:12.270Z,16.10
2017-09-25T17:25:42.566Z,15.80
2017-09-25T17:28:13.114Z,15.60
2017-09-25T17:30:42.722Z,15.60
2017-09-25T17:33:12.421Z,15.50
2017-09-25T17:35:42.142Z,15.40
2017-09-25T17:38:11.787Z,15.30
2017-09-25T17:40:41.570Z,15.10
2017-09-25T17:43:11.276Z,15.00
2017-09-25T17:45:40.570Z,14.90
2017-09-25T17:48:09.829Z,14.80
2017-09-25T17:50:39.089Z,14.70
2017-09-25T17:53:08.355Z,14.60
2017-09-25T17:55:37.619Z,14.60
2017-09-25T17:58:06.871Z,14.50
2017-09-25T18:00:36.134Z,14.30
2017-09-25T18:03:05.474Z,14.20
2017-09-25T18:05:34.760Z,14.10
2017-09-25T18:08:04.007Z,14.00
2017-09-25T18:10:33.263Z,14.00
2017-09-25T18:13:03.299Z,13.80
2017-09-25T18:15:32.571Z,13.80
2017-09-25T18:18:02.604Z,13.70
2017-09-25T18:20:32.958Z,13.70
2017-09-25T18:23:02.231Z,13.70
2017-09-25T18:25:32.254Z,13.50
2017-09-25T18:28:01.541Z,13.50
2017-09-25T18:30:30.786Z,13.40
2017-09-25T18:33:00.050Z,13.40
2017-09-25T18:35:29.296Z,13.30
2017-09-25T18:37:58.592Z,13.30
2017-09-25T18:40:27.969Z,13.30
2017-09-25T18:42:58.003Z,13.20
2017-09-25T18:45:27.302Z,13.20
2017-09-25T18:47:56.554Z,13.20
2017-09-25T18:50:27.361Z,13.00
2017-09-25T18:52:56.622Z,13.00
2017-09-25T18:55:25.889Z,13.00
2017-09-25T18:57:55.162Z,13.00
2017-09-25T19:00:24.410Z,13.00
2017-09-25T19:02:54.500Z,12.90
2017-09-25T19:05:23.838Z,12.90
2017-09-25T19:07:53.848Z,12.80
2017-09-25T19:10:23.875Z,12.80
2017-09-25T19:12:53.899Z,12.70
2017-09-25T19:15:23.179Z,12.70
2017-09-25T19:17:52.450Z,12.70
2017-09-25T19:20:21.722Z,12.60
2017-09-25T19:22:51.006Z,12.60
2017-09-25T19:25:21.615Z,12.50
2017-09-25T19:27:51.078Z,12.50
2017-09-25T19:30:20.354Z,12.40
2017-09-25T19:32:49.601Z,12.40
2017-09-25T19:35:18.863Z,12.40
2017-09-25T19:37:49.046Z,12.40
2017-09-25T19:40:18.423Z,12.40
2017-09-25T19:42:47.674Z,12.40
2017-09-25T19:45:17.692Z,12.20
2017-09-25T19:47:57.727Z,12.20
2017-09-25T19:50:33.409Z,12.20
2017-09-25T19:53:02.671Z,12.20
2017-09-25T19:55:32.727Z,12.20
2017-09-25T19:58:03.919Z,12.20
2017-09-25T20:00:33.292Z,12.20
2017-09-25T20:03:02.542Z,12.10
2017-09-25T20:05:31.863Z,12.10
2017-09-25T20:08:01.886Z,12.10
2017-09-25T20:10:31.150Z,12.10
2017-09-25T20:13:00.410Z,12.10
2017-09-25T20:18:33.184Z,12.10
2017-09-25T20:21:03.318Z,12.00
2017-09-25T20:23:32.595Z,12.00
2017-09-25T20:26:02.647Z,12.00
2017-09-25T20:28:31.937Z,11.90
2017-09-25T20:31:01.327Z,11.90
2017-09-25T20:33:31.367Z,11.90
2017-09-25T20:36:00.669Z,11.80
2017-09-25T20:38:29.906Z,11.90
2017-09-25T20:41:10.025Z,11.90
2017-09-25T20:43:40.258Z,11.80
2017-09-25T20:46:09.493Z,11.80
2017-09-25T20:48:38.770Z,11.80
2017-09-25T20:51:08.017Z,11.70
2017-09-25T20:53:37.314Z,11.70
2017-09-25T20:56:06.569Z,11.70
2017-09-25T20:58:35.819Z,11.70
2017-09-25T21:01:05.068Z,11.70
2017-09-25T21:03:34.538Z,11.70
2017-09-25T21:06:04.607Z,11.80
2017-09-25T21:08:33.833Z,11.70
2017-09-25T21:11:03.082Z,11.80
2017-09-25T21:13:32.381Z,11.80
2017-09-25T21:16:01.858Z,11.80
2017-09-25T21:18:31.881Z,11.70
2017-09-25T21:21:01.142Z,11.70
2017-09-25T21:23:30.418Z,11.60
2017-09-25T21:26:09.659Z,11.60
2017-09-25T21:28:38.933Z,11.60
2017-09-25T21:31:08.221Z,11.60
2017-09-25T21:33:37.639Z,11.50
2017-09-25T21:36:06.876Z,11.50
2017-09-25T21:38:36.324Z,11.50
2017-09-25T21:41:05.590Z,11.50
2017-09-25T21:43:34.862Z,11.50
2017-09-25T21:46:04.219Z,11.40
2017-09-25T21:48:33.638Z,11.40
2017-09-25T21:51:03.803Z,11.40
2017-09-25T21:53:33.069Z,11.30
2017-09-25T21:56:03.093Z,11.30
2017-09-25T21:58:32.626Z,11.30
2017-09-25T22:01:01.888Z,11.30
2017-09-25T22:03:31.304Z,11.30
2017-09-25T22:06:00.547Z,11.30
2017-09-25T22:08:29.804Z,11.30
2017-09-25T22:10:59.083Z,11.30
2017-09-25T22:13:28.330Z,11.30
2017-09-25T22:15:57.606Z,11.30
2017-09-25T22:18:26.989Z,11.30
2017-09-25T22:20:56.414Z,11.30
2017-09-25T22:23:25.777Z,11.30
2017-09-25T22:25:55.018Z,11.30
2017-09-25T22:28:24.288Z,11.40
2017-09-25T22:30:53.546Z,11.40
2017-09-25T22:33:22.834Z,11.40
2017-09-25T22:35:52.094Z,11.40
2017-09-25T22:38:21.344Z,11.50
2017-09-25T22:40:50.605Z,11.50
2017-09-25T22:43:38.629Z,11.50
2017-09-25T22:46:08.037Z,11.50
2017-09-25T22:48:37.335Z,11.50
2017-09-25T22:51:06.606Z,11.50
2017-09-25T22:53:35.926Z,11.50
2017-09-25T22:56:05.191Z,11.50
2017-09-25T22:58:34.461Z,11.50
2017-09-25T23:01:03.841Z,11.50
2017-09-25T23:06:37.622Z,11.50
2017-09-25T23:09:06.889Z,11.50
2017-09-25T23:11:47.896Z,11.50
2017-09-25T23:14:17.239Z,11.50
2017-09-25T23:16:46.594Z,11.50
2017-09-25T23:19:16.070Z,11.50
2017-09-25T23:21:46.109Z,11.40
2017-09-25T23:24:15.358Z,11.40
2017-09-25T23:26:44.634Z,11.50
2017-09-25T23:29:13.910Z,11.40
2017-09-25T23:31:43.418Z,11.40
2017-09-25T23:34:12.684Z,11.50
2017-09-25T23:36:41.938Z,11.50
2017-09-25T23:39:11.213Z,11.50
2017-09-25T23:41:40.460Z,11.50
2017-09-25T23:44:09.769Z,11.50
2017-09-25T23:46:39.013Z,11.50
2017-09-25T23:49:09.046Z,11.40
2017-09-25T23:51:38.301Z,11.50
2017-09-25T23:54:08.331Z,11.40
2017-09-25T23:56:38.389Z,11.30
2017-09-25T23:59:07.652Z,11.30
